Time;durP1;ratioP1;P1;durP2;ratioP2;P2;SDS_P1;SDS_P2;PMS_P1;PMS_P2;Temp;Humidity;BMP_temperature;BMP_pressure;BME280_temperature;BME280_humidity;BME280_pressure;Samples;Min_cycle;Max_cycle;Signal;HPM_P1;HPM_P2
2023/12/30 00:01:36;;;;;;;11.70;2.05;;;;;;;;;;4994092;28;20381;-74
2023/12/30 00:04:02;;;;;;;10.68;1.90;;;;;;;;;;4980165;28;20051;-74
2023/12/30 00:06:28;;;;;;;10.70;1.60;;;;;;;;;;4990611;28;20043;-74
2023/12/30 00:08:54;;;;;;;8.13;1.33;;;;;;;;;;4976766;28;20682;-74
2023/12/30 00:11:20;;;;;;;11.30;2.10;;;;;;;;;;4982509;28;20571;-74
2023/12/30 00:13:46;;;;;;;9.30;1.65;;;;;;;;;;4991704;28;20053;-74
2023/12/30 00:16:13;;;;;;;10.85;1.40;;;;;;;;;;4984807;28;20055;-74
2023/12/30 00:18:39;;;;;;;10.95;2.28;;;;;;;;;;4981897;28;20408;-74
2023/12/30 00:21:06;;;;;;;10.38;1.75;;;;;;;;;;4987044;28;20390;-74
2023/12/30 00:23:33;;;;;;;12.52;1.63;;;;;;;;;;4985696;28;20035;-74
2023/12/30 00:25:59;;;;;;;12.05;1.65;;;;;;;;;;4980078;28;20047;-74
2023/12/30 00:28:25;;;;;;;12.57;2.03;;;;;;;;;;4972736;28;20481;-74
2023/12/30 00:30:51;;;;;;;11.15;1.70;;;;;;;;;;4984437;28;20457;-74
2023/12/30 00:33:17;;;;;;;10.55;1.95;;;;;;;;;;4991758;28;20046;-74
2023/12/30 00:35:43;;;;;;;9.68;1.60;;;;;;;;;;4984354;28;20047;-74
2023/12/30 00:38:09;;;;;;;12.02;1.83;;;;;;;;;;4992152;28;20034;-74
2023/12/30 00:40:35;;;;;;;12.75;1.73;;;;;;;;;;4978496;28;20476;-74
2023/12/30 00:43:01;;;;;;;10.77;1.80;;;;;;;;;;4996224;28;20396;-74
2023/12/30 00:45:27;;;;;;;13.10;1.65;;;;;;;;;;4995326;28;20412;-74
2023/12/30 00:47:53;;;;;;;14.95;1.95;;;;;;;;;;4994983;28;20046;-74
2023/12/30 00:50:19;;;;;;;8.82;1.95;;;;;;;;;;4995549;28;20042;-74
2023/12/30 00:52:45;;;;;;;9.35;1.70;;;;;;;;;;4995384;28;20073;-74
2023/12/30 00:55:11;;;;;;;9.63;1.40;;;;;;;;;;4995708;28;20096;-74
2023/12/30 00:57:37;;;;;;;12.13;1.70;;;;;;;;;;4992581;28;20054;-74
2023/12/30 01:00:04;;;;;;;15.10;2.38;;;;;;;;;;4993935;28;20049;-74
2023/12/30 01:02:30;;;;;;;11.05;1.70;;;;;;;;;;4995564;28;20054;-74
2023/12/30 01:04:56;;;;;;;8.13;1.70;;;;;;;;;;4977440;28;20061;-74
2023/12/30 01:07:22;;;;;;;9.63;1.33;;;;;;;;;;4995023;28;20035;-74
2023/12/30 01:09:48;;;;;;;10.18;1.50;;;;;;;;;;4994102;28;20053;-74
2023/12/30 01:12:14;;;;;;;8.82;1.50;;;;;;;;;;4977378;28;20054;-74
2023/12/30 01:14:40;;;;;;;9.80;1.50;;;;;;;;;;4990950;28;20148;-74
2023/12/30 01:17:06;;;;;;;9.88;1.45;;;;;;;;;;4988546;28;20062;-74
2023/12/30 01:19:33;;;;;;;6.82;1.30;;;;;;;;;;4993721;28;20055;-74
2023/12/30 01:21:59;;;;;;;10.73;2.03;;;;;;;;;;4994014;28;20185;-74
2023/12/30 01:24:26;;;;;;;12.73;1.60;;;;;;;;;;4994992;28;20043;-74
2023/12/30 01:26:52;;;;;;;9.70;1.42;;;;;;;;;;4993514;28;20046;-74
2023/12/30 01:29:18;;;;;;;12.43;1.40;;;;;;;;;;4994401;28;20054;-74
2023/12/30 01:31:44;;;;;;;11.60;1.52;;;;;;;;;;4993517;28;20084;-74
2023/12/30 01:34:10;;;;;;;9.90;1.92;;;;;;;;;;4994709;28;20128;-74
2023/12/30 01:36:36;;;;;;;11.35;2.00;;;;;;;;;;4992995;28;20038;-74
2023/12/30 01:39:02;;;;;;;7.60;1.48;;;;;;;;;;4993993;28;20042;-74
2023/12/30 01:41:31;;;;;;;15.10;2.05;;;;;;;;;;4994943;28;20050;-74
2023/12/30 01:43:57;;;;;;;10.25;2.25;;;;;;;;;;4994605;28;20527;-74
2023/12/30 01:46:23;;;;;;;11.63;1.92;;;;;;;;;;4994610;28;20378;-74
2023/12/30 01:48:49;;;;;;;8.15;1.70;;;;;;;;;;4994983;28;20054;-74
2023/12/30 01:51:15;;;;;;;13.18;1.58;;;;;;;;;;4994962;28;20105;-74
2023/12/30 01:53:42;;;;;;;7.53;1.48;;;;;;;;;;4994807;28;20520;-74
2023/12/30 01:56:08;;;;;;;10.70;1.55;;;;;;;;;;4994245;28;20046;-74
2023/12/30 01:58:36;;;;;;;8.98;1.67;;;;;;;;;;4994302;28;20494;-74
2023/12/30 02:01:03;;;;;;;11.55;1.65;;;;;;;;;;4993949;28;20117;-74
2023/12/30 02:03:29;;;;;;;10.65;1.50;;;;;;;;;;4994233;28;20492;-74
2023/12/30 02:05:56;;;;;;;6.97;1.58;;;;;;;;;;4993631;28;20097;-74
2023/12/30 02:08:22;;;;;;;10.35;1.55;;;;;;;;;;4993227;28;20034;-74
2023/12/30 02:10:48;;;;;;;11.82;1.80;;;;;;;;;;4988450;28;20085;-74
2023/12/30 02:13:14;;;;;;;11.63;1.65;;;;;;;;;;4989744;28;20038;-74
2023/12/30 02:15:40;;;;;;;10.98;1.77;;;;;;;;;;4974303;28;20053;-74
2023/12/30 02:18:06;;;;;;;10.10;1.58;;;;;;;;;;4975153;28;20082;-74
2023/12/30 02:20:33;;;;;;;10.15;1.60;;;;;;;;;;4987296;28;20043;-74
2023/12/30 02:22:59;;;;;;;12.55;1.67;;;;;;;;;;4980046;28;20041;-74
2023/12/30 02:25:25;;;;;;;12.23;1.45;;;;;;;;;;4987882;28;20439;-74
2023/12/30 02:27:51;;;;;;;12.98;1.92;;;;;;;;;;4986290;28;20066;-74
2023/12/30 02:30:18;;;;;;;10.52;1.63;;;;;;;;;;4991445;28;20038;-74
2023/12/30 02:32:44;;;;;;;12.75;1.60;;;;;;;;;;4980979;28;20043;-74
2023/12/30 02:35:10;;;;;;;9.57;1.30;;;;;;;;;;4975549;28;20125;-74
2023/12/30 02:37:36;;;;;;;10.05;1.38;;;;;;;;;;4978601;28;20093;-74
2023/12/30 02:40:02;;;;;;;14.75;1.63;;;;;;;;;;4985447;28;20154;-74
2023/12/30 02:42:28;;;;;;;13.82;1.65;;;;;;;;;;4992396;28;20460;-74
2023/12/30 02:44:54;;;;;;;9.05;1.55;;;;;;;;;;4993675;28;20108;-74
2023/12/30 02:47:20;;;;;;;10.77;1.75;;;;;;;;;;4993462;28;20451;-74
2023/12/30 02:49:46;;;;;;;10.95;1.80;;;;;;;;;;4993415;28;20408;-74
2023/12/30 02:52:12;;;;;;;13.57;1.80;;;;;;;;;;4978598;28;20507;-74
2023/12/30 02:54:38;;;;;;;11.75;1.92;;;;;;;;;;4993565;28;20042;-74
2023/12/30 02:57:05;;;;;;;13.48;1.63;;;;;;;;;;4991755;28;20043;-74
2023/12/30 02:59:32;;;;;;;6.03;1.20;;;;;;;;;;4992989;28;20042;-74
2023/12/30 03:01:58;;;;;;;10.02;1.88;;;;;;;;;;4992195;28;20115;-74
2023/12/30 03:04:24;;;;;;;13.63;1.80;;;;;;;;;;4993659;28;20049;-74
2023/12/30 03:06:50;;;;;;;14.43;1.80;;;;;;;;;;4993377;28;20441;-74
2023/12/30 03:09:17;;;;;;;10.80;1.35;;;;;;;;;;4992896;28;20046;-74
2023/12/30 03:11:43;;;;;;;11.65;1.60;;;;;;;;;;4986882;28;20054;-74
2023/12/30 03:14:09;;;;;;;13.90;2.05;;;;;;;;;;4986156;28;20054;-74
2023/12/30 03:16:35;;;;;;;10.02;1.52;;;;;;;;;;4982794;28;20097;-74
2023/12/30 03:19:02;;;;;;;11.23;1.27;;;;;;;;;;4983438;28;20408;-74
2023/12/30 03:21:28;;;;;;;11.27;1.83;;;;;;;;;;4995576;28;20049;-74
2023/12/30 03:23:54;;;;;;;12.63;1.70;;;;;;;;;;4997009;28;20476;-74
2023/12/30 03:26:20;;;;;;;13.50;1.95;;;;;;;;;;4997108;28;20130;-74
2023/12/30 03:28:46;;;;;;;8.80;1.40;;;;;;;;;;4982707;28;20724;-74
2023/12/30 03:31:22;;;;;;;10.27;1.60;;;;;;;;;;4990761;28;20042;-74
2023/12/30 03:33:48;;;;;;;13.63;1.35;;;;;;;;;;4990600;28;20043;-74
2023/12/30 03:36:14;;;;;;;9.35;1.75;;;;;;;;;;4996741;28;20038;-75
2023/12/30 03:38:40;;;;;;;9.70;1.50;;;;;;;;;;4990405;28;20050;-74
2023/12/30 03:41:06;;;;;;;12.15;1.60;;;;;;;;;;4984911;28;20050;-74
2023/12/30 03:43:32;;;;;;;10.05;1.83;;;;;;;;;;4986025;28;20787;-74
2023/12/30 03:45:58;;;;;;;12.00;1.67;;;;;;;;;;4967943;28;20476;-74
2023/12/30 03:48:24;;;;;;;9.98;2.50;;;;;;;;;;4996843;28;20504;-75
2023/12/30 03:50:50;;;;;;;11.32;1.95;;;;;;;;;;4996655;28;20590;-74
2023/12/30 03:53:16;;;;;;;12.20;2.10;;;;;;;;;;4996323;28;20051;-74
2023/12/30 03:55:42;;;;;;;16.20;1.95;;;;;;;;;;4996883;28;20038;-74
2023/12/30 03:58:08;;;;;;;11.43;1.48;;;;;;;;;;4996842;28;20550;-74
2023/12/30 04:00:34;;;;;;;13.23;1.55;;;;;;;;;;4996220;28;20515;-74
2023/12/30 04:03:00;;;;;;;11.38;1.92;;;;;;;;;;4996862;28;20396;-74
2023/12/30 04:05:26;;;;;;;11.30;1.45;;;;;;;;;;4996134;28;20396;-74
2023/12/30 04:07:52;;;;;;;11.90;1.60;;;;;;;;;;4996618;28;20389;-74
2023/12/30 04:10:18;;;;;;;10.63;1.52;;;;;;;;;;4995116;28;20084;-74
2023/12/30 04:12:44;;;;;;;13.68;1.88;;;;;;;;;;4989809;28;20451;-74
2023/12/30 04:15:10;;;;;;;13.02;2.08;;;;;;;;;;4978698;28;20061;-74
2023/12/30 04:17:37;;;;;;;13.27;1.58;;;;;;;;;;4996457;28;20058;-74
2023/12/30 04:20:03;;;;;;;13.13;2.05;;;;;;;;;;4995657;28;20385;-74
2023/12/30 04:22:29;;;;;;;11.55;1.67;;;;;;;;;;4996309;28;20034;-74
2023/12/30 04:24:59;;;;;;;9.90;1.60;;;;;;;;;;4978617;28;20057;-74
2023/12/30 04:27:25;;;;;;;12.70;1.75;;;;;;;;;;4990435;28;20061;-74
2023/12/30 04:29:52;;;;;;;14.70;1.92;;;;;;;;;;4986380;28;20552;-74
2023/12/30 04:32:20;;;;;;;12.05;1.98;;;;;;;;;;4979622;28;20050;-74
2023/12/30 04:34:46;;;;;;;13.85;2.00;;;;;;;;;;4976655;28;20078;-74
2023/12/30 04:37:13;;;;;;;12.30;2.10;;;;;;;;;;4976707;28;20097;-74
2023/12/30 04:39:39;;;;;;;13.75;1.55;;;;;;;;;;4984222;28;20046;-74
2023/12/30 04:42:06;;;;;;;18.10;2.05;;;;;;;;;;4951992;28;20050;-74
2023/12/30 04:44:32;;;;;;;13.63;2.10;;;;;;;;;;4980793;28;20093;-74
2023/12/30 04:46:58;;;;;;;15.70;2.03;;;;;;;;;;4994791;28;20112;-74
2023/12/30 04:49:25;;;;;;;14.57;2.00;;;;;;;;;;4994946;28;20038;-74
2023/12/30 04:51:51;;;;;;;11.27;1.92;;;;;;;;;;4972611;28;20106;-74
2023/12/30 04:54:17;;;;;;;16.58;1.92;;;;;;;;;;4992156;28;20061;-74
2023/12/30 04:56:43;;;;;;;12.93;1.92;;;;;;;;;;4987255;28;20448;-74
2023/12/30 04:59:09;;;;;;;13.85;2.08;;;;;;;;;;4995060;28;20053;-74
2023/12/30 05:01:36;;;;;;;14.20;2.00;;;;;;;;;;4986526;28;20047;-74
2023/12/30 05:04:03;;;;;;;16.73;1.88;;;;;;;;;;4981223;28;20052;-74
2023/12/30 05:06:29;;;;;;;13.43;2.15;;;;;;;;;;4968702;28;20085;-74
2023/12/30 05:08:56;;;;;;;8.75;2.03;;;;;;;;;;4989356;28;20101;-74
2023/12/30 05:11:25;;;;;;;12.88;1.70;;;;;;;;;;4987234;28;20048;-74
2023/12/30 05:13:52;;;;;;;11.30;1.90;;;;;;;;;;4994427;28;20050;-74
2023/12/30 05:16:18;;;;;;;12.30;1.85;;;;;;;;;;4984220;28;20055;-74
2023/12/30 05:18:44;;;;;;;12.35;1.95;;;;;;;;;;4984412;28;20416;-74
2023/12/30 05:21:16;;;;;;;10.85;1.50;;;;;;;;;;4981457;28;20117;-74
2023/12/30 05:23:43;;;;;;;10.90;1.90;;;;;;;;;;4994750;28;20053;-74
2023/12/30 05:26:12;;;;;;;13.30;1.95;;;;;;;;;;4976742;28;20046;-74
2023/12/30 05:28:38;;;;;;;16.05;2.05;;;;;;;;;;4984171;28;20497;-74
2023/12/30 05:31:04;;;;;;;15.75;1.98;;;;;;;;;;4962052;28;20046;-74
2023/12/30 05:33:30;;;;;;;12.48;1.85;;;;;;;;;;4987511;28;20404;-74
2023/12/30 05:35:56;;;;;;;15.52;2.15;;;;;;;;;;4981346;28;20484;-74
2023/12/30 05:38:22;;;;;;;9.65;2.08;;;;;;;;;;4987232;28;20512;-74
2023/12/30 05:40:48;;;;;;;17.02;2.13;;;;;;;;;;4973466;28;20088;-74
2023/12/30 05:43:15;;;;;;;13.02;2.00;;;;;;;;;;4993209;28;20042;-74
2023/12/30 05:45:43;;;;;;;12.13;1.98;;;;;;;;;;4993529;28;20039;-74
2023/12/30 05:48:09;;;;;;;16.30;1.98;;;;;;;;;;4994455;28;20077;-74
2023/12/30 05:50:35;;;;;;;14.25;1.65;;;;;;;;;;4994760;28;20061;-74
2023/12/30 05:53:01;;;;;;;12.43;2.25;;;;;;;;;;4958649;28;20046;-74
2023/12/30 05:55:28;;;;;;;14.50;2.20;;;;;;;;;;4980648;28;20130;-74
2023/12/30 05:57:54;;;;;;;12.48;1.60;;;;;;;;;;4992340;28;20046;-74
2023/12/30 06:00:20;;;;;;;14.70;1.92;;;;;;;;;;4977174;28;20058;-74
2023/12/30 06:02:48;;;;;;;10.95;2.17;;;;;;;;;;4952380;28;20096;-74
2023/12/30 06:05:14;;;;;;;12.95;2.25;;;;;;;;;;4981678;28;20043;-74
2023/12/30 06:07:40;;;;;;;16.20;2.35;;;;;;;;;;4985342;28;20054;-74
2023/12/30 06:10:07;;;;;;;15.13;2.25;;;;;;;;;;4976067;28;20555;-74
2023/12/30 06:12:33;;;;;;;14.55;1.75;;;;;;;;;;4974940;28;20078;-74
2023/12/30 06:14:59;;;;;;;12.25;2.10;;;;;;;;;;4986767;28;20053;-74
2023/12/30 06:17:25;;;;;;;15.00;2.03;;;;;;;;;;4981087;28;20050;-74
2023/12/30 06:19:51;;;;;;;11.68;2.00;;;;;;;;;;4991781;28;20700;-74
2023/12/30 06:22:17;;;;;;;15.25;2.33;;;;;;;;;;4993935;28;20089;-74
2023/12/30 06:24:44;;;;;;;15.32;1.90;;;;;;;;;;4993543;28;20573;-74
2023/12/30 06:27:10;;;;;;;11.95;1.90;;;;;;;;;;4993027;28;20042;-74
2023/12/30 06:29:36;;;;;;;13.82;2.13;;;;;;;;;;4985160;28;20042;-74
2023/12/30 06:32:03;;;;;;;14.88;1.70;;;;;;;;;;4989123;28;20141;-74
2023/12/30 06:34:30;;;;;;;15.75;2.25;;;;;;;;;;4985813;28;20050;-74
2023/12/30 06:36:56;;;;;;;14.07;2.15;;;;;;;;;;4984420;28;20510;-74
2023/12/30 06:39:23;;;;;;;12.27;1.75;;;;;;;;;;4986444;28;20496;-74
2023/12/30 06:41:49;;;;;;;13.68;2.30;;;;;;;;;;4984714;28;20137;-74
2023/12/30 06:44:15;;;;;;;17.63;2.00;;;;;;;;;;4985851;28;20038;-74
2023/12/30 06:46:41;;;;;;;16.02;2.00;;;;;;;;;;4986120;28;20093;-74
2023/12/30 06:49:07;;;;;;;15.15;2.00;;;;;;;;;;4986354;28;20043;-74
2023/12/30 06:51:33;;;;;;;16.25;2.00;;;;;;;;;;4985367;28;20069;-74
2023/12/30 06:53:59;;;;;;;16.50;2.20;;;;;;;;;;4983238;28;20062;-74
2023/12/30 06:56:25;;;;;;;15.60;2.50;;;;;;;;;;4984633;28;20046;-74
2023/12/30 06:58:51;;;;;;;12.80;2.05;;;;;;;;;;4984156;28;20053;-74
2023/12/30 07:01:20;;;;;;;14.18;2.22;;;;;;;;;;4986041;28;20050;-74
2023/12/30 07:03:47;;;;;;;15.20;2.20;;;;;;;;;;4983283;28;20042;-74
2023/12/30 07:06:13;;;;;;;11.82;2.00;;;;;;;;;;4985740;28;20488;-74
2023/12/30 07:08:39;;;;;;;19.05;2.95;;;;;;;;;;4981810;28;20401;-74
2023/12/30 07:11:05;;;;;;;17.50;2.50;;;;;;;;;;4988383;28;20043;-74
2023/12/30 07:13:31;;;;;;;17.05;2.40;;;;;;;;;;4957248;28;20046;-74
2023/12/30 07:15:57;;;;;;;14.60;2.53;;;;;;;;;;4978198;28;20069;-74
2023/12/30 07:18:23;;;;;;;14.27;2.00;;;;;;;;;;4992860;28;20440;-74
2023/12/30 07:20:49;;;;;;;13.70;2.40;;;;;;;;;;4991907;28;20038;-74
2023/12/30 07:23:15;;;;;;;12.68;2.53;;;;;;;;;;4987695;28;20548;-74
2023/12/30 07:25:41;;;;;;;15.70;2.25;;;;;;;;;;4969587;28;20038;-74
2023/12/30 07:28:07;;;;;;;13.60;2.28;;;;;;;;;;4991442;28;20042;-74
2023/12/30 07:30:34;;;;;;;15.07;2.20;;;;;;;;;;4989444;28;20045;-74
2023/12/30 07:33:00;;;;;;;16.67;3.03;;;;;;;;;;4961786;28;20125;-74
2023/12/30 07:35:27;;;;;;;16.15;3.17;;;;;;;;;;4979805;28;20046;-74
2023/12/30 07:37:53;;;;;;;16.42;3.50;;;;;;;;;;4984035;28;20555;-74
2023/12/30 07:40:19;;;;;;;13.43;2.80;;;;;;;;;;4987238;28;20052;-74
2023/12/30 07:42:45;;;;;;;13.95;2.45;;;;;;;;;;4986689;28;20093;-74
2023/12/30 07:45:11;;;;;;;18.90;2.40;;;;;;;;;;4985157;28;20105;-74
2023/12/30 07:47:37;;;;;;;11.75;2.05;;;;;;;;;;4990486;28;20504;-74
2023/12/30 07:50:03;;;;;;;16.27;2.20;;;;;;;;;;4990735;28;20080;-74
2023/12/30 07:52:30;;;;;;;13.95;2.47;;;;;;;;;;4987166;28;20074;-74
2023/12/30 07:54:56;;;;;;;12.40;1.77;;;;;;;;;;4988516;28;20082;-74
2023/12/30 07:57:22;;;;;;;16.88;2.20;;;;;;;;;;4991538;28;20047;-74
2023/12/30 07:59:49;;;;;;;13.23;2.28;;;;;;;;;;4992747;28;20138;-74
2023/12/30 08:02:16;;;;;;;13.70;2.00;;;;;;;;;;4991693;28;20345;-74
2023/12/30 08:04:43;;;;;;;13.55;1.95;;;;;;;;;;4990981;28;20049;-74
2023/12/30 08:07:09;;;;;;;10.77;2.22;;;;;;;;;;4989113;28;20530;-74
2023/12/30 08:09:37;;;;;;;16.95;2.38;;;;;;;;;;4991074;28;20141;-74
2023/12/30 08:12:04;;;;;;;13.60;2.40;;;;;;;;;;4976128;28;20046;-74
2023/12/30 08:14:30;;;;;;;12.98;2.67;;;;;;;;;;4983235;28;20050;-74
2023/12/30 08:16:58;;;;;;;12.75;2.20;;;;;;;;;;4992781;28;20492;-74
2023/12/30 08:19:24;;;;;;;12.18;2.22;;;;;;;;;;4994128;28;20184;-74
2023/12/30 08:21:50;;;;;;;14.80;2.53;;;;;;;;;;4989987;28;20404;-74
2023/12/30 08:24:19;;;;;;;13.18;2.50;;;;;;;;;;4988388;28;20389;-74
2023/12/30 08:26:45;;;;;;;18.30;3.45;;;;;;;;;;4992793;28;20049;-74
2023/12/30 08:29:13;;;;;;;17.23;2.50;;;;;;;;;;4978217;28;20120;-74
2023/12/30 08:31:45;;;;;;;16.33;2.60;;;;;;;;;;4995842;28;20078;-74
2023/12/30 08:34:11;;;;;;;13.70;2.28;;;;;;;;;;4961602;28;20050;-74
2023/12/30 08:36:37;;;;;;;13.43;2.80;;;;;;;;;;4980560;28;20431;-74
2023/12/30 08:39:04;;;;;;;16.83;2.45;;;;;;;;;;4977128;28;20089;-74
2023/12/30 08:41:30;;;;;;;16.25;2.72;;;;;;;;;;4995671;28;20101;-74
2023/12/30 08:43:56;;;;;;;15.20;2.15;;;;;;;;;;4994997;28;20058;-74
2023/12/30 08:46:22;;;;;;;12.88;2.65;;;;;;;;;;4995232;28;20125;-74
2023/12/30 08:48:48;;;;;;;16.60;2.63;;;;;;;;;;4994311;28;20042;-74
2023/12/30 08:51:15;;;;;;;15.95;2.50;;;;;;;;;;4995202;28;20092;-74
2023/12/30 08:53:41;;;;;;;15.50;2.33;;;;;;;;;;4992238;28;20137;-74
2023/12/30 08:56:07;;;;;;;16.80;2.28;;;;;;;;;;4975482;28;20105;-74
2023/12/30 08:58:33;;;;;;;11.35;2.45;;;;;;;;;;4995319;28;20407;-74
2023/12/30 09:00:59;;;;;;;15.20;2.60;;;;;;;;;;4995085;28;20093;-74
2023/12/30 09:03:26;;;;;;;16.05;2.40;;;;;;;;;;4992289;28;20137;-74
2023/12/30 09:05:52;;;;;;;16.65;2.70;;;;;;;;;;4989376;28;20042;-74
2023/12/30 09:08:19;;;;;;;16.77;2.90;;;;;;;;;;4994905;28;20046;-74
2023/12/30 09:10:45;;;;;;;19.02;2.08;;;;;;;;;;4994988;28;20046;-74
2023/12/30 09:13:11;;;;;;;11.30;2.58;;;;;;;;;;4994817;28;20047;-74
2023/12/30 09:15:37;;;;;;;12.75;2.40;;;;;;;;;;4994136;28;20046;-74
2023/12/30 09:18:04;;;;;;;14.45;3.13;;;;;;;;;;4991705;28;20042;-74
2023/12/30 09:20:30;;;;;;;13.00;3.17;;;;;;;;;;4992618;28;20389;-74
2023/12/30 09:22:56;;;;;;;17.20;2.55;;;;;;;;;;4993095;28;20043;-74
2023/12/30 09:25:22;;;;;;;13.90;3.15;;;;;;;;;;4994588;28;20042;-74
2023/12/30 09:27:48;;;;;;;12.23;2.30;;;;;;;;;;4994653;28;20054;-73
2023/12/30 09:30:14;;;;;;;11.63;2.40;;;;;;;;;;4994310;28;20705;-75
2023/12/30 09:32:40;;;;;;;12.85;2.30;;;;;;;;;;4994393;28;20052;-74
2023/12/30 09:35:07;;;;;;;10.43;2.08;;;;;;;;;;4993911;28;20047;-75
2023/12/30 09:37:33;;;;;;;13.40;2.67;;;;;;;;;;4984331;28;20081;-75
2023/12/30 09:39:59;;;;;;;15.68;2.50;;;;;;;;;;4982517;28;20046;-75
2023/12/30 09:42:27;;;;;;;11.52;2.10;;;;;;;;;;4992582;28;20051;-75
2023/12/30 09:44:54;;;;;;;11.88;2.38;;;;;;;;;;4989978;28;20089;-75
2023/12/30 09:47:20;;;;;;;16.65;2.60;;;;;;;;;;4974828;28;20142;-75
2023/12/30 09:49:46;;;;;;;11.73;2.20;;;;;;;;;;4975721;28;20034;-75
2023/12/30 09:52:12;;;;;;;12.77;2.05;;;;;;;;;;4977582;28;20126;-75
2023/12/30 09:54:39;;;;;;;16.27;2.10;;;;;;;;;;4990789;28;20381;-75
2023/12/30 09:57:05;;;;;;;15.50;1.90;;;;;;;;;;4964253;28;20389;-75
2023/12/30 09:59:35;;;;;;;15.57;2.42;;;;;;;;;;4993599;28;20077;-75
2023/12/30 10:02:03;;;;;;;13.95;2.50;;;;;;;;;;4979155;28;20123;-75
2023/12/30 10:04:29;;;;;;;17.88;3.10;;;;;;;;;;4991290;28;20074;-75
2023/12/30 10:06:56;;;;;;;12.07;2.83;;;;;;;;;;4991810;28;20436;-75
2023/12/30 10:09:23;;;;;;;18.75;3.05;;;;;;;;;;4993133;28;20046;-75
2023/12/30 10:11:49;;;;;;;17.35;2.97;;;;;;;;;;4993003;28;20050;-75
2023/12/30 10:14:16;;;;;;;17.67;3.80;;;;;;;;;;4988818;28;20046;-75
2023/12/30 10:16:42;;;;;;;17.23;4.20;;;;;;;;;;4977500;28;20062;-75
2023/12/30 10:19:13;;;;;;;19.23;4.72;;;;;;;;;;4981931;28;20068;-75
2023/12/30 10:21:39;;;;;;;15.02;4.55;;;;;;;;;;4976630;28;20652;-75
2023/12/30 10:24:05;;;;;;;16.48;4.70;;;;;;;;;;4992089;28;20049;-75
2023/12/30 10:26:32;;;;;;;15.68;4.68;;;;;;;;;;4988792;28;20093;-75
2023/12/30 10:28:58;;;;;;;18.10;4.57;;;;;;;;;;4993068;28;20038;-75
2023/12/30 10:31:25;;;;;;;16.35;4.63;;;;;;;;;;4992591;28;20396;-75
2023/12/30 10:33:54;;;;;;;16.55;5.03;;;;;;;;;;4987710;28;20046;-75
2023/12/30 10:36:20;;;;;;;16.10;5.35;;;;;;;;;;4987174;28;20050;-75
2023/12/30 10:38:47;;;;;;;17.52;5.13;;;;;;;;;;4991691;28;20053;-75
2023/12/30 10:41:13;;;;;;;14.23;4.95;;;;;;;;;;4985995;28;20076;-75
2023/12/30 10:43:39;;;;;;;20.00;5.55;;;;;;;;;;4992889;28;20058;-75
2023/12/30 10:46:10;;;;;;;23.75;6.28;;;;;;;;;;4991549;28;20496;-75
2023/12/30 10:48:38;;;;;;;22.08;6.30;;;;;;;;;;4992387;28;20515;-75
2023/12/30 10:51:04;;;;;;;22.80;7.47;;;;;;;;;;4992100;28;20045;-75
2023/12/30 10:53:30;;;;;;;19.17;6.60;;;;;;;;;;4968573;28;20088;-75
2023/12/30 10:56:03;;;;;;;18.90;5.43;;;;;;;;;;4968497;28;20443;-75
2023/12/30 10:58:40;;;;;;;15.68;5.95;;;;;;;;;;4992379;28;20046;-75
2023/12/30 11:01:06;;;;;;;19.40;6.07;;;;;;;;;;4992960;28;20054;-75
2023/12/30 11:03:34;;;;;;;17.55;6.13;;;;;;;;;;4988631;28;20376;-75
2023/12/30 11:06:19;;;;;;;16.83;5.65;;;;;;;;;;4981788;28;20042;-75
2023/12/30 11:08:45;;;;;;;14.93;5.07;;;;;;;;;;4977167;28;20042;-75
2023/12/30 11:11:17;;;;;;;17.42;5.13;;;;;;;;;;4990214;28;20146;-75
2023/12/30 11:13:43;;;;;;;17.70;4.72;;;;;;;;;;4985012;28;20053;-75
2023/12/30 11:16:16;;;;;;;18.27;4.40;;;;;;;;;;4961375;28;20054;-75
2023/12/30 11:18:57;;;;;;;20.65;5.15;;;;;;;;;;5007598;28;20058;-75
2023/12/30 11:21:43;;;;;;;20.80;6.43;;;;;;;;;;4992641;28;20046;-75
2023/12/30 11:24:12;;;;;;;17.25;4.47;;;;;;;;;;4983553;28;20053;-75
2023/12/30 11:26:42;;;;;;;18.75;4.28;;;;;;;;;;4986047;28;20093;-75
2023/12/30 11:29:27;;;;;;;20.13;4.82;;;;;;;;;;4982679;28;20544;-75
2023/12/30 11:31:55;;;;;;;14.95;3.95;;;;;;;;;;4981662;28;20480;-75
2023/12/30 11:34:21;;;;;;;16.85;3.88;;;;;;;;;;4987045;28;20105;-75
2023/12/30 11:36:49;;;;;;;18.02;3.95;;;;;;;;;;4983143;28;20051;-75
2023/12/30 11:39:23;;;;;;;15.18;3.70;;;;;;;;;;4984286;28;20069;-75
2023/12/30 11:41:51;;;;;;;14.25;3.75;;;;;;;;;;4991034;28;20070;-75
2023/12/30 11:44:17;;;;;;;16.02;3.42;;;;;;;;;;4989869;28;20041;-75
2023/12/30 11:46:43;;;;;;;11.35;3.38;;;;;;;;;;4986629;28;20511;-75
2023/12/30 11:49:09;;;;;;;17.20;3.72;;;;;;;;;;4987957;28;20527;-75
2023/12/30 11:51:35;;;;;;;20.85;3.70;;;;;;;;;;4986369;28;20039;-75
2023/12/30 11:54:05;;;;;;;13.50;3.22;;;;;;;;;;4971230;28;20527;-75
2023/12/30 11:56:32;;;;;;;17.67;3.25;;;;;;;;;;4989080;28;20134;-75
2023/12/30 11:58:58;;;;;;;15.88;3.28;;;;;;;;;;4988050;28;20050;-76
2023/12/30 12:01:24;;;;;;;17.17;3.47;;;;;;;;;;4991125;28;20054;-75
2023/12/30 12:03:52;;;;;;;15.60;3.50;;;;;;;;;;4990523;28;20078;-75
2023/12/30 12:06:18;;;;;;;18.13;3.15;;;;;;;;;;4985057;28;20447;-75
2023/12/30 12:08:44;;;;;;;14.55;3.08;;;;;;;;;;4986149;28;20085;-75
2023/12/30 12:11:10;;;;;;;13.43;3.05;;;;;;;;;;4987545;28;20046;-75
2023/12/30 12:13:37;;;;;;;15.25;3.20;;;;;;;;;;4985364;28;20050;-75
2023/12/30 12:16:04;;;;;;;23.02;4.80;;;;;;;;;;4987300;28;20054;-75
2023/12/30 12:18:31;;;;;;;16.33;4.18;;;;;;;;;;4969669;28;20069;-76
2023/12/30 12:20:59;;;;;;;14.45;3.83;;;;;;;;;;4988518;28;20492;-75
2023/12/30 12:23:25;;;;;;;14.70;4.00;;;;;;;;;;4989077;28;20050;-76
2023/12/30 12:25:51;;;;;;;18.65;4.72;;;;;;;;;;4989385;28;20050;-75
2023/12/30 12:28:20;;;;;;;17.40;3.90;;;;;;;;;;4987659;28;20050;-75
2023/12/30 12:30:46;;;;;;;19.83;4.05;;;;;;;;;;4982693;28;20070;-75
2023/12/30 12:33:13;;;;;;;21.27;4.10;;;;;;;;;;4979781;28;20058;-76
2023/12/30 12:35:39;;;;;;;16.98;4.10;;;;;;;;;;4984017;28;20152;-76
2023/12/30 12:38:05;;;;;;;18.35;3.72;;;;;;;;;;4987605;28;20050;-75
2023/12/30 12:40:34;;;;;;;17.42;3.85;;;;;;;;;;4984395;28;20050;-76
2023/12/30 12:43:01;;;;;;;21.85;5.82;;;;;;;;;;4986332;28;20146;-75
2023/12/30 12:45:27;;;;;;;20.02;4.35;;;;;;;;;;4984999;28;20038;-75
2023/12/30 12:47:53;;;;;;;14.18;3.42;;;;;;;;;;4982528;28;20051;-76
2023/12/30 12:50:19;;;;;;;15.95;4.10;;;;;;;;;;4980535;28;20097;-76
2023/12/30 12:52:45;;;;;;;22.92;4.80;;;;;;;;;;4986392;28;20046;-75
2023/12/30 12:55:12;;;;;;;17.60;3.85;;;;;;;;;;4986527;28;20089;-76
2023/12/30 12:57:38;;;;;;;15.52;3.72;;;;;;;;;;4980243;28;20070;-75
2023/12/30 13:00:07;;;;;;;18.35;4.13;;;;;;;;;;4984511;28;20184;-75
2023/12/30 13:02:34;;;;;;;15.15;3.42;;;;;;;;;;4991641;28;20038;-75
2023/12/30 13:05:00;;;;;;;17.35;4.63;;;;;;;;;;4981960;28;20365;-75
2023/12/30 13:07:26;;;;;;;18.90;4.10;;;;;;;;;;4984237;28;20046;-76
2023/12/30 13:09:59;;;;;;;16.40;4.05;;;;;;;;;;4985632;28;20045;-76
2023/12/30 13:12:25;;;;;;;16.83;4.18;;;;;;;;;;4983110;28;20046;-76
2023/12/30 13:14:52;;;;;;;16.90;3.95;;;;;;;;;;4972347;28;20133;-76
2023/12/30 13:17:18;;;;;;;19.65;4.32;;;;;;;;;;4987466;28;20105;-74
2023/12/30 13:19:44;;;;;;;19.27;4.47;;;;;;;;;;4984520;28;20125;-75
2023/12/30 13:22:11;;;;;;;22.92;4.88;;;;;;;;;;4987100;28;20074;-75
2023/12/30 13:24:38;;;;;;;20.48;4.45;;;;;;;;;;4984247;28;20042;-76
2023/12/30 13:27:05;;;;;;;21.42;4.78;;;;;;;;;;4985120;28;20061;-76
2023/12/30 13:29:31;;;;;;;18.73;5.00;;;;;;;;;;4982496;28;20050;-76
2023/12/30 13:31:57;;;;;;;19.80;4.53;;;;;;;;;;4978403;28;20050;-76
2023/12/30 13:34:24;;;;;;;17.17;4.28;;;;;;;;;;4985337;28;20126;-76
2023/12/30 13:36:56;;;;;;;23.02;5.32;;;;;;;;;;4984983;28;20054;-76
2023/12/30 13:39:22;;;;;;;22.40;4.63;;;;;;;;;;4985414;28;20133;-76
2023/12/30 13:41:50;;;;;;;26.17;5.35;;;;;;;;;;4984822;28;20093;-76
2023/12/30 13:44:16;;;;;;;18.98;4.65;;;;;;;;;;4982826;28;20047;-76
2023/12/30 13:46:59;;;;;;;25.58;5.18;;;;;;;;;;4991594;28;20049;-76
2023/12/30 13:52:09;;;;;;;16.05;5.00;;;;;;;;;;4988585;28;20059;-76
2023/12/30 13:54:39;;;;;;;22.83;5.30;;;;;;;;;;4986765;28;20146;-76
2023/12/30 13:57:12;;;;;;;20.10;5.45;;;;;;;;;;4979710;28;20448;-76
2023/12/30 13:59:44;;;;;;;19.63;5.13;;;;;;;;;;4986525;28;20054;-76
2023/12/30 14:02:10;;;;;;;23.77;5.35;;;;;;;;;;4988335;28;20104;-76
2023/12/30 14:04:37;;;;;;;19.15;4.72;;;;;;;;;;4979903;28;20443;-75
2023/12/30 14:07:12;;;;;;;23.70;5.35;;;;;;;;;;4984271;28;20085;-76
2023/12/30 14:09:54;;;;;;;20.65;5.03;;;;;;;;;;4982501;28;20064;-76
2023/12/30 14:12:23;;;;;;;18.83;5.55;;;;;;;;;;4981199;28;20130;-76
2023/12/30 14:14:58;;;;;;;18.98;4.80;;;;;;;;;;4986371;28;20381;-76
2023/12/30 14:17:31;;;;;;;18.98;4.63;;;;;;;;;;4984463;28;20072;-76
2023/12/30 14:20:04;;;;;;;20.98;5.20;;;;;;;;;;4986418;28;20536;-76
2023/12/30 14:22:30;;;;;;;23.52;5.55;;;;;;;;;;4986886;28;20055;-76
2023/12/30 14:24:56;;;;;;;21.60;5.55;;;;;;;;;;4984725;28;20046;-76
2023/12/30 14:27:22;;;;;;;23.70;5.65;;;;;;;;;;4991151;28;20057;-76
2023/12/30 14:29:51;;;;;;;18.38;5.13;;;;;;;;;;4991660;28;20090;-76
2023/12/30 14:32:18;;;;;;;24.55;5.68;;;;;;;;;;4987026;28;20055;-76